Time;durP1;ratioP1;P1;durP2;ratioP2;P2;SDS_P1;SDS_P2;PMS_P1;PMS_P2;Temp;Humidity;BMP_temperature;BMP_pressure;BME280_temperature;BME280_humidity;BME280_pressure;Samples;Min_cycle;Max_cycle;Signal;HPM_P1;HPM_P2
2021/05/31 00:01:58;;;;;;;15.48;9.98;;;;;;;16.80;50.12;100730.66;4975302;28;20098;-84
2021/05/31 00:04:25;;;;;;;18.60;10.18;;;;;;;16.80;50.11;100733.31;4975236;28;20054;-84
2021/05/31 00:07:01;;;;;;;17.40;10.15;;;;;;;16.78;50.09;100725.44;4974050;28;20050;-84
2021/05/31 00:09:29;;;;;;;15.30;9.90;;;;;;;16.77;50.03;100726.41;4974240;28;20054;-85
2021/05/31 00:11:55;;;;;;;17.13;10.90;;;;;;;16.74;50.12;100715.97;4975129;28;20062;-85
2021/05/31 00:14:22;;;;;;;15.18;10.73;;;;;;;16.72;50.28;100717.03;4974459;28;20057;-84
2021/05/31 00:16:49;;;;;;;17.05;10.77;;;;;;;16.68;50.59;100719.88;4973367;28;20053;-84
2021/05/31 00:19:19;;;;;;;16.23;11.13;;;;;;;16.64;50.84;100713.06;4975023;28;20058;-84
2021/05/31 00:21:46;;;;;;;17.67;10.93;;;;;;;16.61;50.49;100717.75;4974965;28;20542;-85
2021/05/31 00:24:13;;;;;;;16.77;11.27;;;;;;;16.57;50.62;100716.25;4973695;28;20050;-84
2021/05/31 00:26:40;;;;;;;17.63;11.75;;;;;;;16.52;50.90;100708.59;4973734;28;20053;-85
2021/05/31 00:29:06;;;;;;;19.40;12.43;;;;;;;16.49;51.05;100714.13;4974812;28;20051;-84
2021/05/31 00:31:33;;;;;;;20.48;12.25;;;;;;;16.44;51.04;100706.44;4991107;28;20049;-84
2021/05/31 00:34:00;;;;;;;17.65;12.45;;;;;;;16.41;50.64;100711.97;5012092;28;20104;-84
2021/05/31 00:36:27;;;;;;;18.30;12.70;;;;;;;16.37;50.99;100715.78;5013761;28;20157;-84
2021/05/31 00:38:54;;;;;;;22.30;13.38;;;;;;;16.31;51.40;100709.06;5012493;28;20451;-85
2021/05/31 00:41:22;;;;;;;20.35;13.45;;;;;;;16.26;51.43;100714.66;5013805;28;20124;-84
2021/05/31 00:43:50;;;;;;;19.80;12.57;;;;;;;16.21;51.61;100705.28;5012440;28;20057;-84
2021/05/31 00:46:17;;;;;;;19.00;13.70;;;;;;;16.16;51.71;100702.97;5013841;28;20050;-83
2021/05/31 00:48:44;;;;;;;21.23;13.77;;;;;;;16.10;51.54;100698.03;5013710;28;20049;-83
2021/05/31 00:51:13;;;;;;;22.13;13.73;;;;;;;16.03;52.36;100702.88;5013308;28;20495;-84
2021/05/31 00:53:39;;;;;;;21.13;14.55;;;;;;;15.99;51.91;100698.72;5012454;28;20058;-83
2021/05/31 00:56:07;;;;;;;26.42;15.43;;;;;;;15.94;52.18;100706.13;5013764;28;20050;-84
2021/05/31 00:58:34;;;;;;;24.92;15.73;;;;;;;15.87;52.15;100703.88;5013488;28;20049;-85
2021/05/31 01:01:02;;;;;;;25.45;15.38;;;;;;;15.81;52.39;100698.94;5012403;28;20050;-84
2021/05/31 01:03:29;;;;;;;24.20;14.93;;;;;;;15.75;52.41;100697.53;5013319;28;20085;-85
2021/05/31 01:06:00;;;;;;;22.02;14.50;;;;;;;15.70;52.75;100696.97;5013444;28;20050;-85
2021/05/31 01:08:52;;;;;;;24.25;14.98;;;;;;;15.66;53.35;100694.63;5013571;28;20100;-85
2021/05/31 01:11:55;;;;;;;22.77;14.55;;;;;;;15.58;53.59;100688.00;5005138;28;20053;-85
2021/05/31 01:14:34;;;;;;;22.52;13.98;;;;;;;15.58;53.70;100690.66;5013244;28;20128;-84
2021/05/31 01:17:01;;;;;;;26.17;15.15;;;;;;;15.57;52.71;100686.28;5013342;28;20046;-84
2021/05/31 01:19:46;;;;;;;25.80;16.10;;;;;;;15.49;53.80;100678.81;5011740;28;20048;-84
2021/05/31 01:22:14;;;;;;;21.08;14.55;;;;;;;15.47;53.25;100686.00;5011777;28;20108;-85
2021/05/31 01:24:49;;;;;;;22.42;14.55;;;;;;;15.38;54.07;100686.59;5012866;28;20053;-85
2021/05/31 01:27:59;;;;;;;23.33;15.30;;;;;;;15.32;54.10;100686.97;5012069;28;20058;-84
2021/05/31 01:30:25;;;;;;;29.35;14.52;;;;;;;15.32;53.00;100686.97;5004890;28;20058;-84
2021/05/31 01:32:54;;;;;;;24.52;15.65;;;;;;;15.27;53.71;100689.91;5011521;28;20049;-84
2021/05/31 01:35:26;;;;;;;21.73;14.85;;;;;;;15.22;54.58;100687.53;5011549;28;20053;-84
2021/05/31 01:37:55;;;;;;;22.90;15.68;;;;;;;15.21;53.92;100695.59;5011559;28;20487;-84
2021/05/31 01:40:22;;;;;;;28.38;16.40;;;;;;;15.19;53.90;100687.75;5013343;28;20450;-85
2021/05/31 01:42:51;;;;;;;23.10;16.15;;;;;;;15.18;54.56;100699.28;5007820;28;20076;-85
2021/05/31 01:45:20;;;;;;;24.50;15.00;;;;;;;15.14;54.38;100684.50;4993181;28;20050;-85
2021/05/31 01:47:47;;;;;;;23.65;16.20;;;;;;;15.13;54.44;100688.09;4991884;28;20471;-86
2021/05/31 01:50:18;;;;;;;26.63;16.15;;;;;;;15.11;54.27;100684.72;4993323;28;20134;-86
2021/05/31 01:52:49;;;;;;;27.25;16.23;;;;;;;15.10;54.42;100688.28;4991519;28;20058;-86
2021/05/31 01:55:16;;;;;;;26.83;17.02;;;;;;;15.07;54.56;100686.69;4993217;28;20069;-85
2021/05/31 01:57:45;;;;;;;23.17;16.80;;;;;;;15.06;54.84;100686.78;4993062;28;20054;-86
2021/05/31 02:00:14;;;;;;;22.40;16.00;;;;;;;15.04;54.98;100683.38;4993285;28;20046;-86
2021/05/31 02:02:49;;;;;;;22.75;15.27;;;;;;;15.04;54.48;100683.38;4991963;28;20182;-86
2021/05/31 02:05:15;;;;;;;29.33;16.55;;;;;;;15.03;54.67;100677.19;4991661;28;20128;-85
2021/05/31 02:07:42;;;;;;;25.50;16.65;;;;;;;15.01;54.70;100672.94;4993080;28;20065;-85
2021/05/31 02:10:11;;;;;;;22.58;16.05;;;;;;;14.98;55.25;100673.97;4992469;28;20046;-85
2021/05/31 02:12:52;;;;;;;29.65;18.02;;;;;;;14.93;56.06;100665.47;4991638;28;20055;-85
2021/05/31 02:15:24;;;;;;;24.60;16.70;;;;;;;14.93;55.78;100671.63;4993000;28;20062;-85
2021/05/31 02:18:18;;;;;;;28.15;17.65;;;;;;;14.89;56.13;100664.81;4993151;28;20488;-85
2021/05/31 02:20:49;;;;;;;23.10;16.15;;;;;;;14.90;55.10;100666.50;4991694;28;20492;-86
2021/05/31 02:23:17;;;;;;;27.33;17.45;;;;;;;14.89;55.10;100666.59;4991457;28;20562;-86
2021/05/31 02:25:44;;;;;;;26.30;16.75;;;;;;;14.86;55.32;100662.34;4992537;28;20058;-85
2021/05/31 02:28:12;;;;;;;29.38;17.38;;;;;;;14.84;55.16;100667.72;4992819;28;20050;-85
2021/05/31 02:30:40;;;;;;;24.42;16.95;;;;;;;14.82;55.31;100664.31;4991756;28;20051;-86
2021/05/31 02:33:07;;;;;;;26.05;17.65;;;;;;;14.82;55.53;100663.47;4991129;28;20105;-85
2021/05/31 02:35:36;;;;;;;29.45;17.10;;;;;;;14.79;55.99;100661.84;4991638;28;20054;-85
2021/05/31 02:38:03;;;;;;;31.02;19.30;;;;;;;14.79;55.90;100661.84;4992228;28;20054;-85
2021/05/31 02:40:31;;;;;;;30.02;19.45;;;;;;;14.79;56.33;100664.50;4996562;28;20077;-86
2021/05/31 02:43:03;;;;;;;30.65;19.60;;;;;;;14.79;56.91;100663.66;4995395;28;20081;-86
2021/05/31 02:45:30;;;;;;;30.92;20.35;;;;;;;14.80;56.28;100665.38;4995342;28;20102;-86
2021/05/31 02:47:58;;;;;;;32.30;21.48;;;;;;;14.81;56.32;100669.72;4995647;28;20074;-86
2021/05/31 02:50:29;;;;;;;31.50;21.05;;;;;;;14.81;57.56;100662.59;4996460;28;20050;-86
2021/05/31 02:52:57;;;;;;;33.70;21.13;;;;;;;14.83;56.48;100665.16;4996505;28;20100;-85
2021/05/31 02:55:26;;;;;;;37.45;21.45;;;;;;;14.84;56.81;100661.59;4996423;28;20405;-86
2021/05/31 02:57:53;;;;;;;35.55;21.17;;;;;;;14.84;56.64;100657.13;4996413;28;20057;-86
2021/05/31 03:00:22;;;;;;;36.55;17.73;;;;;;;14.85;56.92;100658.00;4995645;28;20515;-85
2021/05/31 03:02:50;;;;;;;46.42;17.42;;;;;;;14.85;56.43;100653.53;4993697;28;20050;-86
2021/05/31 03:05:22;;;;;;;59.20;17.95;;;;;;;14.81;57.46;100654.66;4994549;28;20555;-85
2021/05/31 03:07:49;;;;;;;58.58;16.65;;;;;;;14.83;56.31;100655.44;4995445;28;20057;-86
2021/05/31 03:10:16;;;;;;;45.15;15.93;;;;;;;14.82;56.54;100659.03;4996209;28;20050;-86
2021/05/31 03:12:44;;;;;;;28.52;13.70;;;;;;;14.79;56.57;100656.56;4995174;28;20050;-86
2021/05/31 03:15:15;;;;;;;46.83;15.25;;;;;;;14.78;56.90;100661.94;4994980;28;20061;-86
2021/05/31 03:17:43;;;;;;;46.67;14.80;;;;;;;14.77;56.75;100663.72;4995181;28;20097;-85
2021/05/31 03:20:12;;;;;;;23.45;14.25;;;;;;;14.77;57.01;100661.06;4994900;28;20046;-86
2021/05/31 03:22:39;;;;;;;40.47;14.57;;;;;;;14.76;56.89;100669.13;4996137;28;20050;-86
2021/05/31 03:25:07;;;;;;;57.05;13.57;;;;;;;14.75;57.08;100662.09;5013472;28;20124;-85
2021/05/31 03:27:34;;;;;;;57.95;14.00;;;;;;;14.73;57.00;100668.34;5016156;28;20049;-84
2021/05/31 03:30:04;;;;;;;43.22;13.20;;;;;;;14.72;57.43;100661.34;5014534;28;20120;-85
2021/05/31 03:32:31;;;;;;;51.10;14.93;;;;;;;14.71;56.96;100664.06;5015028;28;20053;-85
2021/05/31 03:34:58;;;;;;;35.38;13.50;;;;;;;14.69;57.06;100666.81;5014210;28;20054;-85
2021/05/31 03:37:24;;;;;;;51.85;14.82;;;;;;;14.68;57.27;100662.47;5015515;28;20053;-85
2021/05/31 03:39:51;;;;;;;59.47;15.02;;;;;;;14.66;57.49;100669.66;5013937;28;20100;-85
2021/05/31 03:42:18;;;;;;;50.25;13.93;;;;;;;14.67;57.24;100674.03;5015209;28;20537;-85
2021/05/31 03:44:44;;;;;;;28.05;14.80;;;;;;;14.67;57.71;100662.56;5015823;28;20450;-84
2021/05/31 03:47:11;;;;;;;40.40;15.05;;;;;;;14.67;57.69;100667.84;5015136;28;20050;-86
2021/05/31 03:49:38;;;;;;;45.28;15.82;;;;;;;14.65;57.76;100661.81;5013303;28;20602;-85
2021/05/31 03:52:04;;;;;;;67.35;15.77;;;;;;;14.65;57.70;100667.94;5014105;28;20108;-85
2021/05/31 03:54:31;;;;;;;40.58;15.95;;;;;;;14.65;57.72;100656.50;5013919;28;20057;-85
2021/05/31 03:56:58;;;;;;;63.67;14.60;;;;;;;14.64;57.77;100660.94;5015031;28;20093;-85
2021/05/31 03:59:25;;;;;;;43.10;14.80;;;;;;;14.64;57.86;100660.06;5015025;28;20541;-85
2021/05/31 04:01:52;;;;;;;68.10;17.15;;;;;;;14.64;57.94;100663.59;5013602;28;20137;-85
2021/05/31 04:04:20;;;;;;;66.97;17.10;;;;;;;14.64;58.08;100666.25;5014034;28;20426;-86
2021/05/31 04:12:00;;;;;;;41.25;15.02;;;;;;;14.65;58.25;100662.66;5015054;28;20097;-86
2021/05/31 04:14:27;;;;;;;47.45;17.67;;;;;;;14.66;58.24;100661.69;5014798;28;20060;-85
2021/05/31 04:16:55;;;;;;;60.78;14.77;;;;;;;14.67;58.40;100660.78;5013551;28;20058;-85
2021/05/31 04:19:25;;;;;;;62.08;15.13;;;;;;;14.68;58.89;100664.25;5014453;28;20454;-85
2021/05/31 04:21:54;;;;;;;22.50;14.32;;;;;;;14.70;58.85;100665.03;5012969;28;20415;-85
2021/05/31 04:24:21;;;;;;;72.93;13.60;;;;;;;14.72;58.19;100668.44;5014274;28;20112;-85
2021/05/31 04:26:49;;;;;;;41.22;13.55;;;;;;;14.73;58.23;100671.00;5013151;28;20103;-86
2021/05/31 04:29:17;;;;;;;37.42;13.98;;;;;;;14.75;58.50;100672.69;5014429;28;20050;-86
2021/05/31 04:31:44;;;;;;;70.50;14.40;;;;;;;14.74;58.58;100666.56;5014531;28;20057;-85
2021/05/31 04:34:12;;;;;;;66.25;13.25;;;;;;;14.75;58.27;100673.56;5005766;28;20082;-85
2021/05/31 04:36:40;;;;;;;69.65;14.63;;;;;;;14.76;58.54;100672.63;4993194;28;20054;-86
2021/05/31 04:39:07;;;;;;;36.97;12.68;;;;;;;14.78;58.48;100673.41;4994539;28;20054;-85
2021/05/31 04:41:36;;;;;;;67.38;14.60;;;;;;;14.78;58.59;100669.91;4993383;28;20485;-85
2021/05/31 04:44:03;;;;;;;156.85;14.40;;;;;;;14.79;58.42;100669.81;4993234;28;20046;-85
2021/05/31 04:46:30;;;;;;;75.15;14.30;;;;;;;14.80;58.49;100671.50;4994275;28;20108;-85
2021/05/31 04:49:00;;;;;;;38.40;13.52;;;;;;;14.81;58.80;100675.03;4992856;28;20423;-85
2021/05/31 04:51:28;;;;;;;30.27;13.45;;;;;;;14.79;58.91;100664.50;4992902;28;20054;-85
2021/05/31 04:53:57;;;;;;;28.00;11.82;;;;;;;14.80;58.91;100671.50;4993928;28;20051;-85
2021/05/31 04:56:27;;;;;;;86.72;13.93;;;;;;;14.80;59.05;100670.66;4992790;28;20054;-85
2021/05/31 04:58:54;;;;;;;73.95;12.82;;;;;;;14.82;nan;100668.78;4992908;28;20066;-85
2021/05/31 05:01:21;;;;;;;27.15;10.23;;;;;;;14.84;58.78;100672.19;4993012;28;20050;-86
2021/05/31 05:03:47;;;;;;;33.88;11.13;;;;;;;14.83;58.71;100668.69;5013550;28;20053;-85
2021/05/31 05:06:14;;;;;;;49.95;12.48;;;;;;;14.84;58.75;100672.19;5013173;28;20057;-84
2021/05/31 05:08:41;;;;;;;51.60;12.80;;;;;;;14.84;58.75;100661.59;5013774;28;20050;-85
2021/05/31 05:11:07;;;;;;;56.20;12.70;;;;;;;14.86;59.04;100662.34;5013535;28;20461;-85
2021/05/31 05:13:34;;;;;;;32.75;11.88;;;;;;;14.89;59.00;100667.47;5013655;28;20105;-85
2021/05/31 05:16:01;;;;;;;129.00;13.43;;;;;;;14.90;59.19;100671.81;5013524;28;20054;-85
2021/05/31 05:18:27;;;;;;;76.03;12.15;;;;;;;14.92;nan;100677.03;5013455;28;20053;-86
2021/05/31 05:20:54;;;;;;;25.90;11.77;;;;;;;14.92;59.33;100669.91;5013538;28;20057;-85
2021/05/31 05:23:21;;;;;;;69.68;12.80;;;;;;;14.93;59.28;100671.63;5011698;28;20099;-86
2021/05/31 05:25:53;;;;;;;32.85;12.65;;;;;;;14.95;59.68;100672.38;5013162;28;20057;-85
2021/05/31 05:28:19;;;;;;;35.80;11.20;;;;;;;14.98;59.60;100677.50;5013155;28;20061;-85
2021/05/31 05:30:50;;;;;;;50.15;12.15;;;;;;;15.02;59.33;100674.66;5000012;28;20054;-86
2021/05/31 05:33:17;;;;;;;55.92;11.60;;;;;;;15.05;59.21;100674.47;4992748;28;20054;-85
2021/05/31 05:35:50;;;;;;;39.15;12.18;;;;;;;15.07;59.23;100675.25;4991364;28;20050;-86
2021/05/31 05:48:44;;;;;;;46.53;12.00;;;;;;;15.19;59.69;100671.84;4993273;28;20052;-85
2021/05/31 05:51:11;;;;;;;41.15;12.48;;;;;;;15.21;59.83;100669.94;4993666;28;20046;-86
2021/05/31 05:53:40;;;;;;;27.90;13.20;;;;;;;15.27;60.21;100667.84;4993969;28;20054;-86
2021/05/31 05:56:10;;;;;;;27.20;12.02;;;;;;;15.31;59.92;100669.34;4993967;28;20443;-86
2021/05/31 05:58:37;;;;;;;35.28;11.57;;;;;;;15.36;59.81;100667.25;4992482;28;20057;-86
2021/05/31 06:01:06;;;;;;;38.05;12.70;;;;;;;15.38;59.67;100665.38;4993809;28;20050;-86
2021/05/31 06:03:33;;;;;;;46.58;13.48;;;;;;;15.41;59.43;100666.97;4992858;28;20061;-86
2021/05/31 06:06:00;;;;;;;33.50;13.35;;;;;;;15.42;59.42;100668.69;4993723;28;20401;-87
2021/05/31 06:08:28;;;;;;;18.40;12.52;;;;;;;15.44;59.93;100672.94;4992223;28;20061;-86
2021/05/31 06:10:55;;;;;;;30.08;14.60;;;;;;;15.48;59.91;100681.56;4991387;28;20451;-86
2021/05/31 06:13:23;;;;;;;17.40;12.93;;;;;;;15.53;60.03;100673.31;4994057;28;20050;-86
2021/05/31 06:15:54;;;;;;;21.77;12.77;;;;;;;15.58;60.04;100681.81;4997086;28;20061;-85
2021/05/31 06:18:21;;;;;;;48.55;13.75;;;;;;;15.63;59.64;100687.72;4996031;28;20065;-85
2021/05/31 06:20:48;;;;;;;77.05;14.65;;;;;;;15.64;59.43;100682.28;4995615;28;20050;-85
2021/05/31 06:23:14;;;;;;;22.73;12.93;;;;;;;15.66;59.32;100679.53;4996785;28;20050;-85
2021/05/31 06:25:41;;;;;;;29.08;13.68;;;;;;;15.68;59.33;100677.66;4996354;28;20439;-85
2021/05/31 06:28:08;;;;;;;22.67;13.45;;;;;;;15.70;59.58;100677.56;4996221;28;20496;-86
2021/05/31 06:30:35;;;;;;;33.75;12.38;;;;;;;15.72;59.32;100678.28;4995293;28;20057;-85
2021/05/31 06:33:03;;;;;;;17.25;13.55;;;;;;;15.76;59.31;100685.13;4996162;28;20057;-87
2021/05/31 06:35:30;;;;;;;55.10;15.05;;;;;;;15.77;59.47;100687.66;4994735;28;20061;-86
2021/05/31 06:37:57;;;;;;;28.90;14.77;;;;;;;15.80;59.38;100685.75;4996118;28;20054;-87
2021/05/31 06:40:25;;;;;;;31.10;15.52;;;;;;;15.80;59.54;100681.31;4996114;28;20485;-87
2021/05/31 06:42:53;;;;;;;30.90;15.95;;;;;;;15.82;59.94;100676.78;4996257;28;20109;-86
2021/05/31 06:45:25;;;;;;;46.88;17.42;;;;;;;15.85;60.40;100678.38;4996122;28;20055;-87
2021/05/31 06:48:00;;;;;;;33.60;15.95;;;;;;;15.88;60.56;100678.16;4996211;28;20416;-88
2021/05/31 06:50:29;;;;;;;22.42;16.92;;;;;;;15.97;60.14;100682.06;4995959;28;20141;-87
2021/05/31 06:52:57;;;;;;;31.17;18.95;;;;;;;16.01;59.90;100681.75;4994603;28;20471;-87
2021/05/31 06:55:26;;;;;;;26.35;18.67;;;;;;;16.05;59.91;100670.94;5004768;28;20112;-87
2021/05/31 06:57:53;;;;;;;26.92;19.45;;;;;;;16.09;59.64;100675.09;4995481;28;20440;-87
2021/05/31 07:00:24;;;;;;;27.90;19.23;;;;;;;16.12;59.81;100674.91;4995888;28;20046;-87
2021/05/31 07:02:51;;;;;;;26.90;20.50;;;;;;;16.15;59.85;100672.03;4995043;28;20078;-87
2021/05/31 07:05:19;;;;;;;24.33;18.92;;;;;;;16.19;59.85;100681.53;4995537;28;20058;-87
2021/05/31 07:07:46;;;;;;;26.08;19.23;;;;;;;16.25;60.03;100674.91;4996018;28;20050;-87
2021/05/31 07:10:22;;;;;;;25.98;19.77;;;;;;;16.31;60.47;100678.97;4995369;28;20062;-87
2021/05/31 07:12:49;;;;;;;28.25;20.70;;;;;;;16.40;60.21;100679.22;4994448;28;20201;-87
2021/05/31 07:15:18;;;;;;;28.45;20.50;;;;;;;16.49;60.29;100672.44;4994031;28;20054;-87
2021/05/31 07:17:46;;;;;;;27.15;20.55;;;;;;;16.59;60.14;100680.63;4995383;28;20060;-86
2021/05/31 07:20:16;;;;;;;28.52;19.50;;;;;;;16.67;60.16;100680.97;4995965;28;20050;-86
2021/05/31 07:22:44;;;;;;;28.35;19.75;;;;;;;16.76;59.69;100679.50;4994307;28;20389;-86
2021/05/31 07:25:14;;;;;;;28.40;19.42;;;;;;;16.87;59.48;100669.94;4995655;28;20054;-85
2021/05/31 07:27:44;;;;;;;23.73;18.13;;;;;;;16.94;59.19;100671.22;4995710;28;20593;-86
2021/05/31 07:30:13;;;;;;;25.80;20.15;;;;;;;16.98;59.21;100670.03;4996089;28;20050;-86
2021/05/31 07:32:42;;;;;;;26.33;20.60;;;;;;;17.01;58.89;100666.31;4995717;28;20065;-86
2021/05/31 07:35:12;;;;;;;27.38;20.90;;;;;;;17.01;59.39;100667.16;4995780;28;20500;-86
2021/05/31 07:37:39;;;;;;;27.63;20.27;;;;;;;17.04;58.69;100666.06;4994777;28;20054;-87
2021/05/31 07:40:12;;;;;;;29.45;20.77;;;;;;;17.05;58.96;100668.66;4994571;28;20051;-86
2021/05/31 07:42:39;;;;;;;27.40;21.13;;;;;;;17.06;59.03;100654.44;4994465;28;20097;-86
2021/05/31 07:45:08;;;;;;;28.10;21.20;;;;;;;17.08;59.17;100654.28;5013421;28;20542;-86
2021/05/31 07:47:40;;;;;;;25.20;20.17;;;;;;;17.12;59.27;100660.28;5015124;28;20046;-86
2021/05/31 07:50:08;;;;;;;26.33;19.92;;;;;;;17.15;59.49;100652.06;5013833;28;20072;-86
2021/05/31 07:52:35;;;;;;;24.95;20.63;;;;;;;17.18;59.68;100642.06;5001711;28;20587;-86
2021/05/31 07:55:07;;;;;;;26.08;18.33;;;;;;;17.23;59.92;100651.53;5002647;28;20141;-87
2021/05/31 07:57:34;;;;;;;25.20;20.00;;;;;;;17.30;59.49;100648.31;5014946;28;20054;-86
2021/05/31 08:00:03;;;;;;;24.00;18.58;;;;;;;17.36;59.47;100649.69;5015033;28;20072;-86
2021/05/31 08:02:30;;;;;;;27.40;20.25;;;;;;;17.42;59.54;100640.44;5013146;28;20514;-86
2021/05/31 08:04:57;;;;;;;24.48;20.20;;;;;;;17.50;59.47;100650.50;5014500;28;20057;-86
2021/05/31 08:07:23;;;;;;;23.52;19.00;;;;;;;17.58;59.38;100648.97;5014667;28;20495;-86
2021/05/31 08:09:50;;;;;;;25.48;20.58;;;;;;;17.67;59.87;100651.94;4999841;28;20046;-86
2021/05/31 08:12:16;;;;;;;23.10;19.35;;;;;;;17.77;59.43;100647.66;4995541;28;20061;-87
2021/05/31 08:14:43;;;;;;;26.02;19.38;;;;;;;17.89;59.89;100640.56;4994823;28;20061;-86
2021/05/31 08:17:10;;;;;;;21.85;17.92;;;;;;;17.99;59.23;100646.06;4994771;28;20057;-86
2021/05/31 08:19:37;;;;;;;25.85;19.50;;;;;;;18.12;59.74;100650.53;4994872;28;20054;-87
2021/05/31 08:22:08;;;;;;;25.40;19.23;;;;;;;18.21;59.69;100645.34;4993692;28;20488;-87
2021/05/31 08:24:36;;;;;;;22.38;18.52;;;;;;;18.34;59.19;100650.59;4993499;28;20104;-86
2021/05/31 08:27:03;;;;;;;20.40;17.02;;;;;;;18.47;58.96;100650.50;4975596;28;20057;-86
2021/05/31 08:29:30;;;;;;;20.73;16.95;;;;;;;18.59;58.49;100643.41;4975259;28;20062;-86
2021/05/31 08:31:57;;;;;;;21.70;16.95;;;;;;;18.71;58.38;100646.06;4974880;28;20051;-87
2021/05/31 08:34:25;;;;;;;17.88;15.13;;;;;;;18.81;57.95;100647.06;4973961;28;20055;-86
2021/05/31 08:36:52;;;;;;;19.88;16.70;;;;;;;18.93;58.29;100636.41;4974135;28;20058;-87
2021/05/31 08:39:19;;;;;;;17.83;15.55;;;;;;;19.03;58.37;100645.41;4975220;28;20065;-87
2021/05/31 08:41:45;;;;;;;20.33;15.07;;;;;;;19.14;58.33;100642.75;4979077;28;20039;-86
2021/05/31 08:44:12;;;;;;;18.42;14.40;;;;;;;19.25;57.97;100635.72;4994842;28;20049;-85
2021/05/31 08:46:39;;;;;;;15.90;12.88;;;;;;;19.36;57.36;100640.19;4994780;28;20061;-86
2021/05/31 08:49:07;;;;;;;15.25;13.43;;;;;;;19.46;57.01;100634.94;4994016;28;20061;-86
2021/05/31 08:51:34;;;;;;;16.83;11.80;;;;;;;19.57;56.55;100648.28;4994138;28;20053;-87
2021/05/31 08:54:01;;;;;;;12.80;11.35;;;;;;;19.67;56.24;100643.88;4994171;28;20060;-86
2021/05/31 08:56:29;;;;;;;14.93;11.55;;;;;;;19.79;56.29;100643.84;4994385;28;20058;-86
2021/05/31 08:58:55;;;;;;;12.38;11.05;;;;;;;19.89;56.29;100634.09;4993779;28;20058;-86
2021/05/31 09:01:24;;;;;;;13.00;10.57;;;;;;;19.99;56.05;100636.91;4993773;28;20070;-85
2021/05/31 09:03:56;;;;;;;12.45;8.98;;;;;;;20.09;56.00;100630.78;4992397;28;20054;-86
2021/05/31 09:06:26;;;;;;;11.02;9.65;;;;;;;20.23;55.73;100637.66;5003131;28;20410;-86
2021/05/31 09:08:58;;;;;;;12.38;9.55;;;;;;;20.35;54.25;100639.28;5012398;28;20407;-85
2021/05/31 09:11:26;;;;;;;11.27;8.63;;;;;;;20.49;54.83;100637.28;5013151;28;20056;-85
2021/05/31 09:13:55;;;;;;;13.55;8.85;;;;;;;20.57;54.06;100624.91;5013239;28;20076;-85
2021/05/31 09:16:27;;;;;;;10.75;8.85;;;;;;;20.67;54.64;100638.34;5013034;28;20049;-86
2021/05/31 09:18:58;;;;;;;13.50;8.07;;;;;;;20.77;53.20;100629.53;5013923;28;20112;-86
2021/05/31 09:21:27;;;;;;;13.07;8.40;;;;;;;20.87;53.06;100629.59;4993597;28;20038;-86
2021/05/31 09:24:00;;;;;;;9.32;7.95;;;;;;;20.94;53.99;100631.63;4993403;28;20455;-85
2021/05/31 09:26:43;;;;;;;8.65;7.05;;;;;;;21.04;53.00;100625.50;4992492;28;20404;-86
2021/05/31 09:29:10;;;;;;;8.40;6.72;;;;;;;21.17;52.56;100618.06;4992630;28;20416;-86
2021/05/31 09:31:37;;;;;;;8.15;7.15;;;;;;;21.28;52.52;100613.56;4992154;28;20054;-85
2021/05/31 09:34:06;;;;;;;7.68;6.85;;;;;;;21.37;52.54;100620.78;4992259;28;20054;-85
2021/05/31 09:36:46;;;;;;;9.25;7.05;;;;;;;21.47;51.85;100620.81;4993351;28;20054;-85
2021/05/31 09:39:12;;;;;;;7.28;6.45;;;;;;;21.57;52.08;100616.31;4993676;28;20065;-85
2021/05/31 09:41:39;;;;;;;7.65;6.28;;;;;;;21.67;51.03;100616.31;4993547;28;20050;-86
2021/05/31 09:44:08;;;;;;;9.20;6.28;;;;;;;21.77;50.92;100616.38;4993614;28;20054;-86
2021/05/31 09:46:42;;;;;;;10.55;7.35;;;;;;;21.83;50.68;100605.09;4993642;28;20051;-85
2021/05/31 09:49:17;;;;;;;6.93;6.03;;;;;;;21.97;50.67;100613.69;5008160;28;20050;-85
2021/05/31 09:52:01;;;;;;;7.90;6.45;;;;;;;22.03;50.32;100606.91;5012899;28;20104;-86
2021/05/31 09:54:37;;;;;;;5.85;4.57;;;;;;;22.13;50.21;100610.47;5012753;28;20054;-85
2021/05/31 09:57:23;;;;;;;7.20;4.65;;;;;;;22.20;48.47;100603.50;5011709;28;20066;-86
2021/05/31 09:59:56;;;;;;;4.85;3.78;;;;;;;22.32;48.32;100606.06;5012662;28;20104;-85
2021/05/31 10:02:48;;;;;;;;;;;;;;;22.38;49.65;100597.41;5004045;28;20108;-85
2021/05/31 10:10:35;;;;;;;3.15;2.15;;;;;;;22.62;45.15;100593.44;4993025;28;20046;-86
2021/05/31 10:13:03;;;;;;;3.65;2.22;;;;;;;22.66;44.29;100594.84;4991660;28;20050;-86
2021/05/31 10:15:33;;;;;;;2.22;2.03;;;;;;;22.70;43.35;100593.56;4991879;28;20062;-86
2021/05/31 10:18:01;;;;;;;4.40;2.35;;;;;;;22.74;43.17;100591.44;4993004;28;20523;-86
2021/05/31 10:20:29;;;;;;;2.90;2.50;;;;;;;22.80;43.20;100587.31;4991674;28;20077;-86
2021/05/31 10:23:01;;;;;;;;;;;;;;;22.85;45.93;100593.06;4992948;28;20078;-86
2021/05/31 10:25:28;;;;;;;4.65;2.60;;;;;;;22.97;44.17;100586.53;4992810;28;19976;-86
2021/05/31 10:28:06;;;;;;;4.03;2.70;;;;;;;23.05;44.22;100583.09;4992921;28;20054;-86
2021/05/31 10:30:40;;;;;;;3.47;2.40;;;;;;;23.14;42.10;100586.72;4999465;28;20065;-85
2021/05/31 10:33:17;;;;;;;4.68;2.50;;;;;;;23.22;42.61;100583.28;5012558;28;20054;-85
2021/05/31 10:35:45;;;;;;;3.63;3.13;;;;;;;23.37;43.84;100584.50;5012301;28;20049;-86
2021/05/31 10:38:18;;;;;;;4.75;3.08;;;;;;;23.53;43.84;100586.53;5010558;28;20045;-85
2021/05/31 10:40:48;;;;;;;3.53;2.72;;;;;;;23.73;42.74;100577.47;5012561;28;20054;-86
2021/05/31 10:43:16;;;;;;;5.80;2.67;;;;;;;23.98;43.67;100574.97;5010801;28;20492;-86
2021/05/31 10:45:43;;;;;;;2.65;2.28;;;;;;;24.26;42.97;100575.72;4994520;28;20124;-86
2021/05/31 10:48:10;;;;;;;3.05;2.30;;;;;;;24.62;42.94;100580.16;4992402;28;20070;-86
2021/05/31 10:50:58;;;;;;;3.92;2.53;;;;;;;25.05;42.96;100568.59;4992927;28;20058;-87
2021/05/31 10:53:32;;;;;;;2.92;1.98;;;;;;;25.59;39.83;100562.84;4992335;28;20057;-86
2021/05/31 10:56:01;;;;;;;2.58;1.95;;;;;;;26.11;38.38;100562.66;4991117;28;20050;-85
2021/05/31 10:58:38;;;;;;;2.55;1.90;;;;;;;26.56;37.48;100559.56;4992516;28;20050;-86
2021/05/31 11:01:10;;;;;;;1.88;1.73;;;;;;;27.03;36.36;100555.19;4996067;28;20050;-86
2021/05/31 11:04:06;;;;;;;3.17;2.27;;;;;;;27.50;38.32;100566.91;4995952;28;20065;-86
2021/05/31 11:06:42;;;;;;;3.63;2.38;;;;;;;28.05;36.81;100555.16;4995756;28;20344;-86
2021/05/31 11:09:11;;;;;;;4.05;2.08;;;;;;;28.54;34.99;100556.56;4996100;28;20053;-86
2021/05/31 11:11:55;;;;;;;3.40;1.70;;;;;;;28.94;34.32;100548.13;4999692;28;20503;-86
2021/05/31 11:14:32;;;;;;;2.08;1.58;;;;;;;29.33;33.20;100542.50;5014614;28;20200;-86
2021/05/31 11:17:07;;;;;;;3.53;1.90;;;;;;;29.64;32.13;100542.22;5015219;28;20054;-86
2021/05/31 11:19:36;;;;;;;1.48;1.20;;;;;;;29.89;32.13;100538.22;5015185;28;20050;-86
2021/05/31 11:22:17;;;;;;;3.17;1.75;;;;;;;30.01;30.86;100544.81;5014921;28;20061;-87
2021/05/31 11:25:06;;;;;;;2.95;1.88;;;;;;;30.19;31.50;100539.97;5001599;28;20050;-86
2021/05/31 11:27:35;;;;;;;2.00;1.40;;;;;;;30.42;31.45;100537.78;4994385;28;20488;-86
2021/05/31 11:30:06;;;;;;;1.70;1.25;;;;;;;30.63;30.23;100533.31;4995852;28;20137;-86
2021/05/31 11:32:33;;;;;;;2.35;1.60;;;;;;;30.88;30.51;100530.09;4994843;28;20789;-86
2021/05/31 11:35:03;;;;;;;2.10;1.60;;;;;;;31.12;29.82;100529.72;4995979;28;20112;-85
2021/05/31 11:37:38;;;;;;;1.80;1.17;;;;;;;31.38;29.69;100526.25;4995984;28;20050;-86
2021/05/31 11:40:21;;;;;;;2.50;1.38;;;;;;;31.60;28.90;100523.34;4995754;28;20050;-87
2021/05/31 11:42:50;;;;;;;1.95;1.52;;;;;;;31.85;28.32;100526.25;4995248;28;20496;-86
2021/05/31 11:45:22;;;;;;;1.70;1.17;;;;;;;32.02;27.91;100520.41;4996629;28;20415;-86
2021/05/31 11:47:56;;;;;;;2.80;1.60;;;;;;;32.12;27.40;100520.00;5000388;28;20084;-86